Edon, OH (43518)

8:08 PM EST on January 23, 2017 (GMT -0500)
Edgerton | | Change Station
Active Advisory: Flood Warning

Elev 876 ft 41.45 °N, 84.69 °W | Updated 27 seconds ago

Rain
Rain
44.8 °F
Feels Like 45 °F
N
0.9
Wind Variable Wind from SSE
Gusts 2.5 mph

Today
High -- | Low -- °F
--% Chance of Precip.
Yesterday
High -- | Low -- °F
Precip. -- in
Pressure 29.69 in
Visibility 7.0 miles
Clouds Mostly Cloudy 600 ft
Overcast 3100 ft
Windchill 45 °F
Dew Point 35 °F
Humidity 69%
Rainfall 0.07 in
Snow Depth Not available.
7:58 AM 5:44 PM
Waning Crescent, 15% visible
METAR KANQ 240055Z AUTO 00000KT 7SM BKN006 OVC031 05/M01 A2969 RMK
Pressure 29.69 in
Visibility 7.0 miles
Clouds Mostly Cloudy 600 ft
Overcast 3100 ft
Windchill 45 °F
Dew Point 35 °F
Humidity 69%
Rainfall 0.07 in
Snow Depth Not available.
7:58 AM 5:44 PM
Waning Crescent, 15% visible
METAR KANQ 240055Z AUTO 00000KT 7SM BKN006 OVC031 05/M01 A2969 RMK

Get Your Daily Forecast Email!

Thanks for signing up!

Be on the lookout for a verification email in your inbox.

You'll start receiving the daily forecast at 8 AM.

×

10-Day Weather Forecast

Almanac

Astronomy

Jan. 23, 2017 Rise Set
Actual Time
Civil Twilight
Nautical Twilight
Astronomical Twilight
Moon
Length of Visible Light
Length of Day
Tomorrow will be .
, % of the Moon is Illuminated

Today's Extremes

State Highs State Lows

Community

WunderPhotos

Upload Photos

1,962,540 photos uploaded!

WunderBlog® & News

Nearby

Air Quality

  Air Quality AQ Index Pollutant
Not available.

Snow Depth

Station Depth Elevation

Earthquake Activity

City Distance Mag. Time & Date
Minimum magnitude displayed is 2.5.

Coastal Water Temperatures

Place Temperature

Stations

Nearby Weather Stations

Station Location Temp. Windchill Dew Point Humidity Wind Precip. Elev Updated Type
                   

Watches & Warnings

Flood Warning
Issued: 10:05 AM EST Jan. 23, 2017 – National Weather Service

the Flood Warning has been extended for
the Tiffin River near Stryker
* until Wednesday afternoon.
* At 9 am Monday the stage was 11.7 feet and steady.
* Minor flooding is occurring and minor flooding is forecast.
* Flood stage is 11.0 feet.
* Forecast... the river will fall below the 11.0 foot flood stage
around 4 PM Tuesday January 24.
* At 12.0 feet... portions of State Route 66 flood north of Archbold.
* This crest compares to a previous crest of 11.9 feet which occurred
on Jun 1 2015.


Lat... Lon 4130 8444 4149 8446 4159 8439 4159 8429
      4130 8438